Time;durP1;ratioP1;P1;durP2;ratioP2;P2;SDS_P1;SDS_P2;PMS_P1;PMS_P2;Temp;Humidity;BMP_temperature;BMP_pressure;BME280_temperature;BME280_humidity;BME280_pressure;Samples;Min_cycle;Max_cycle;Signal;HPM_P1;HPM_P2
2021/12/22 00:01:40;;;;;;;57.88;33.60;;;-2.40;99.90;;;;;;4921917;29;20515;-48
2021/12/22 00:04:05;;;;;;;50.47;32.42;;;-2.40;99.90;;;;;;4945273;29;20055;-48
2021/12/22 00:06:34;;;;;;;59.53;33.38;;;-2.40;99.90;;;;;;4925366;29;20047;-48
2021/12/22 00:09:00;;;;;;;50.58;32.88;;;-2.40;99.90;;;;;;4928632;29;20130;-48
2021/12/22 00:11:26;;;;;;;58.25;34.15;;;-2.40;99.90;;;;;;4930276;29;20458;-47
2021/12/22 00:13:52;;;;;;;55.55;33.33;;;-2.50;99.90;;;;;;4945951;29;20383;-50
2021/12/22 00:16:18;;;;;;;41.38;29.35;;;-2.40;99.90;;;;;;4947417;29;20051;-49
2021/12/22 00:18:44;;;;;;;36.92;26.75;;;-2.50;99.90;;;;;;4946805;29;20380;-47
2021/12/22 00:21:10;;;;;;;39.28;26.67;;;-2.60;99.90;;;;;;4904315;29;20055;-48
2021/12/22 00:23:36;;;;;;;39.80;28.52;;;-2.60;99.90;;;;;;4944649;29;20054;-48
2021/12/22 00:26:04;;;;;;;44.03;28.30;;;-2.70;99.90;;;;;;4941048;29;20067;-48
2021/12/22 00:28:29;;;;;;;43.97;28.30;;;-2.70;99.90;;;;;;4944299;28;20584;-48
2021/12/22 00:30:56;;;;;;;44.33;28.20;;;-2.70;99.90;;;;;;4931471;29;20059;-49
2021/12/22 00:33:30;;;;;;;38.72;26.95;;;-2.70;99.90;;;;;;4947437;28;20146;-48
2021/12/22 00:35:56;;;;;;;41.53;26.33;;;-2.70;99.90;;;;;;4943489;28;20047;-48
2021/12/22 00:38:22;;;;;;;37.65;24.38;;;-2.80;99.90;;;;;;4947024;28;20094;-50
2021/12/22 00:40:50;;;;;;;35.28;23.90;;;-2.80;99.90;;;;;;4948277;29;20054;-51
2021/12/22 00:43:21;;;;;;;31.65;22.73;;;-2.80;99.90;;;;;;4931008;29;20714;-50
2021/12/22 00:45:55;;;;;;;32.15;23.25;;;-2.90;99.90;;;;;;4948902;29;20058;-49
2021/12/22 00:48:21;;;;;;;35.95;25.00;;;-3.00;99.90;;;;;;4925859;29;20051;-51
2021/12/22 00:50:47;;;;;;;37.33;26.08;;;-2.90;99.90;;;;;;4946796;29;20058;-48
2021/12/22 00:53:13;;;;;;;36.38;24.70;;;-3.00;99.90;;;;;;4946263;29;20517;-48
2021/12/22 00:55:39;;;;;;;43.13;28.38;;;-3.00;99.90;;;;;;4946379;28;20170;-48
2021/12/22 00:58:05;;;;;;;45.33;28.13;;;-2.90;99.90;;;;;;4943461;29;20054;-48
2021/12/22 01:00:31;;;;;;;42.95;28.23;;;-2.90;99.90;;;;;;4947464;29;20453;-48
2021/12/22 01:02:58;;;;;;;43.42;28.33;;;-2.90;99.90;;;;;;4946515;28;20043;-48
2021/12/22 01:05:24;;;;;;;47.20;28.58;;;-2.90;99.90;;;;;;4947388;28;20051;-48
2021/12/22 01:07:57;;;;;;;45.63;29.10;;;-2.80;99.90;;;;;;4947077;29;20512;-47
2021/12/22 01:10:26;;;;;;;42.53;27.58;;;-2.90;99.90;;;;;;4948758;29;20066;-47
2021/12/22 01:12:55;;;;;;;40.97;27.15;;;-2.90;99.90;;;;;;4943262;29;20159;-48
2021/12/22 01:15:21;;;;;;;46.67;27.80;;;-2.90;99.90;;;;;;4944102;28;20137;-47
2021/12/22 01:18:01;;;;;;;34.40;23.98;;;-2.90;99.90;;;;;;4948227;28;20074;-48
2021/12/22 01:20:32;;;;;;;32.30;23.15;;;-3.00;99.90;;;;;;4947693;28;20350;-48
2021/12/22 01:23:05;;;;;;;35.05;24.80;;;-3.10;99.90;;;;;;4938879;28;20405;-47
2021/12/22 01:25:38;;;;;;;31.98;23.15;;;-3.00;99.90;;;;;;4928249;29;20467;-47
2021/12/22 01:28:04;;;;;;;31.05;21.90;;;-3.10;99.90;;;;;;4929576;29;20126;-50
2021/12/22 01:30:33;;;;;;;34.17;23.38;;;-3.10;99.90;;;;;;4920070;29;20055;-48
2021/12/22 01:33:04;;;;;;;38.15;24.02;;;-3.20;99.90;;;;;;4948233;28;20090;-48
2021/12/22 01:35:34;;;;;;;36.10;23.25;;;-3.20;99.90;;;;;;4959502;28;20083;-48
2021/12/22 01:38:00;;;;;;;32.42;22.13;;;-3.10;99.90;;;;;;4946652;28;20605;-48
2021/12/22 01:40:26;;;;;;;32.63;22.42;;;-3.10;99.90;;;;;;4947047;29;20051;-47
2021/12/22 01:42:55;;;;;;;36.78;23.08;;;-3.20;99.90;;;;;;4937147;28;20134;-47
2021/12/22 01:51:07;;;;;;;31.48;20.58;;;-3.20;99.90;;;;;;4944527;29;20058;-48
2021/12/22 01:53:44;;;;;;;32.03;20.92;;;-3.20;99.90;;;;;;4937096;29;20047;-48
2021/12/22 01:56:21;;;;;;;30.05;20.58;;;-3.20;99.90;;;;;;4927759;29;20088;-48
2021/12/22 01:58:50;;;;;;;27.40;18.48;;;-3.30;99.90;;;;;;4927999;29;20573;-49
2021/12/22 02:01:16;;;;;;;27.45;20.70;;;-3.30;99.90;;;;;;4927733;29;20066;-47
2021/12/22 02:03:44;;;;;;;29.63;20.67;;;-3.30;99.90;;;;;;4945795;29;20153;-47
2021/12/22 02:06:11;;;;;;;26.58;20.30;;;-3.30;99.90;;;;;;4944956;28;20494;-48
2021/12/22 02:08:38;;;;;;;27.85;20.05;;;-3.30;99.90;;;;;;4927946;29;20122;-47
2021/12/22 02:11:05;;;;;;;29.00;20.58;;;-3.30;99.90;;;;;;4945269;29;20047;-47
2021/12/22 02:13:37;;;;;;;27.42;20.75;;;-3.30;99.90;;;;;;4944092;29;20055;-48
2021/12/22 02:16:09;;;;;;;29.27;20.30;;;-3.30;99.90;;;;;;4945170;29;20086;-51
2021/12/22 02:18:37;;;;;;;28.23;18.85;;;-3.30;99.90;;;;;;4926828;29;20087;-48
2021/12/22 02:21:04;;;;;;;31.67;19.70;;;-3.40;99.90;;;;;;4926702;29;20094;-47
2021/12/22 02:23:31;;;;;;;32.35;20.50;;;-3.40;99.90;;;;;;4944529;29;20107;-47
2021/12/22 02:26:04;;;;;;;29.48;19.33;;;-3.40;99.90;;;;;;4944606;29;20511;-49
2021/12/22 02:28:33;;;;;;;23.60;18.75;;;-3.50;99.90;;;;;;4910658;29;20514;-48
2021/12/22 02:30:59;;;;;;;28.08;19.85;;;-3.50;99.90;;;;;;4926915;29;20050;-48
2021/12/22 02:36:06;;;;;;;30.60;18.25;;;-3.50;99.90;;;;;;4951881;28;20477;-48
2021/12/22 02:38:35;;;;;;;27.92;19.20;;;-3.40;99.90;;;;;;4926581;29;20420;-49
2021/12/22 02:41:01;;;;;;;24.85;17.80;;;-3.50;99.90;;;;;;4943958;28;20035;-47
2021/12/22 02:43:31;;;;;;;24.33;18.23;;;-3.50;99.90;;;;;;4944329;29;20039;-48
2021/12/22 02:45:57;;;;;;;28.77;18.67;;;-3.50;99.90;;;;;;4944452;28;20051;-48
2021/12/22 02:48:27;;;;;;;23.52;17.08;;;-3.50;99.90;;;;;;4941280;29;20521;-48
2021/12/22 02:50:55;;;;;;;23.67;18.08;;;-3.50;99.90;;;;;;4945817;29;20142;-49
2021/12/22 02:53:29;;;;;;;27.23;18.58;;;-3.50;99.90;;;;;;4943889;29;20059;-49
2021/12/22 02:56:04;;;;;;;25.85;16.75;;;-3.60;99.90;;;;;;4942756;29;20406;-48
2021/12/22 02:58:41;;;;;;;22.98;17.45;;;-3.60;99.90;;;;;;4942658;29;20059;-47
2021/12/22 03:03:57;;;;;;;25.73;18.20;;;-3.60;99.90;;;;;;4943532;28;20054;-49
2021/12/22 03:06:32;;;;;;;29.17;17.80;;;-3.70;99.90;;;;;;4918346;29;20387;-47
2021/12/22 03:08:59;;;;;;;26.55;17.17;;;-3.70;99.90;;;;;;4941622;29;20421;-47
2021/12/22 03:11:30;;;;;;;25.42;16.55;;;-3.70;99.90;;;;;;4944078;29;20055;-48
2021/12/22 03:13:55;;;;;;;24.40;15.85;;;-3.70;99.90;;;;;;4942141;29;20054;-47
2021/12/22 03:16:21;;;;;;;24.17;17.60;;;-3.70;99.90;;;;;;4943005;29;20426;-48
2021/12/22 03:18:47;;;;;;;44.95;18.42;;;-3.70;99.90;;;;;;4945648;28;20157;-48
2021/12/22 03:21:21;;;;;;;25.15;16.83;;;-3.70;99.90;;;;;;4947264;29;20406;-49
2021/12/22 03:23:51;;;;;;;23.95;15.43;;;-3.70;99.90;;;;;;4927014;29;20463;-47
2021/12/22 03:26:18;;;;;;;24.65;16.33;;;-3.70;99.90;;;;;;4929522;29;20058;-47
2021/12/22 03:28:45;;;;;;;29.10;18.42;;;-3.80;99.90;;;;;;4946970;29;20473;-50
2021/12/22 03:31:12;;;;;;;29.20;17.48;;;-3.70;99.90;;;;;;4947336;29;20058;-47
2021/12/22 03:33:38;;;;;;;30.77;18.42;;;-3.80;99.90;;;;;;4947623;28;20083;-48
2021/12/22 03:36:04;;;;;;;29.70;17.27;;;-3.70;99.90;;;;;;4939210;28;20585;-47
2021/12/22 03:38:32;;;;;;;26.42;17.10;;;-3.80;99.90;;;;;;4927746;29;20059;-47
2021/12/22 03:40:58;;;;;;;25.92;16.67;;;-3.80;99.90;;;;;;4946693;28;20406;-47
2021/12/22 03:43:24;;;;;;;27.73;17.58;;;-3.80;99.90;;;;;;4927724;29;20593;-48
2021/12/22 03:45:50;;;;;;;29.60;18.42;;;-3.80;99.90;;;;;;4940041;28;20047;-51
2021/12/22 03:48:17;;;;;;;25.15;17.08;;;-3.90;99.90;;;;;;4946576;29;20055;-48
2021/12/22 03:50:43;;;;;;;26.65;17.10;;;-3.80;99.90;;;;;;4948878;29;20852;-47
2021/12/22 03:53:09;;;;;;;32.63;18.23;;;-3.90;99.90;;;;;;4948215;29;20050;-52
2021/12/22 03:55:35;;;;;;;26.98;17.35;;;-3.90;99.90;;;;;;4942642;29;20094;-49
2021/12/22 03:58:01;;;;;;;30.20;19.60;;;-3.90;99.90;;;;;;4946309;29;20047;-47
2021/12/22 04:00:26;;;;;;;32.42;19.45;;;-3.90;99.90;;;;;;4946089;29;20402;-48
2021/12/22 04:02:52;;;;;;;24.30;16.25;;;-3.90;99.90;;;;;;4946224;28;20051;-48
2021/12/22 04:05:19;;;;;;;26.45;17.08;;;-3.90;99.90;;;;;;4946690;29;20090;-48
2021/12/22 04:07:45;;;;;;;25.80;17.58;;;-4.00;99.90;;;;;;4946030;29;20059;-49
2021/12/22 04:10:21;;;;;;;26.00;16.92;;;-4.10;99.90;;;;;;4946114;29;20485;-48
2021/12/22 04:12:52;;;;;;;31.40;18.38;;;-4.10;99.90;;;;;;4924888;29;20126;-48
2021/12/22 04:15:19;;;;;;;31.80;20.23;;;-4.10;99.90;;;;;;4946001;28;20171;-47
2021/12/22 04:17:45;;;;;;;28.55;17.27;;;-4.00;99.90;;;;;;4944923;28;20059;-47
2021/12/22 04:20:12;;;;;;;30.67;18.90;;;-4.00;99.90;;;;;;4946129;29;20491;-48
2021/12/22 04:22:38;;;;;;;29.48;17.98;;;-4.00;99.90;;;;;;4945522;29;20062;-48
2021/12/22 04:25:07;;;;;;;36.20;18.45;;;-4.10;99.90;;;;;;4928496;29;20094;-48
2021/12/22 04:27:33;;;;;;;29.50;17.92;;;-4.10;99.90;;;;;;4926555;29;20559;-51
2021/12/22 04:29:59;;;;;;;29.73;17.77;;;-4.10;99.90;;;;;;4943643;28;20051;-47
2021/12/22 04:32:25;;;;;;;27.77;17.55;;;-4.10;99.90;;;;;;4945015;29;20126;-47
2021/12/22 04:34:51;;;;;;;23.65;17.25;;;-4.10;99.90;;;;;;4938554;28;20058;-48
2021/12/22 04:37:17;;;;;;;31.50;19.15;;;-4.10;99.90;;;;;;4946790;29;20058;-48
2021/12/22 04:39:42;;;;;;;33.15;20.27;;;-4.00;99.90;;;;;;4928031;29;20055;-47
2021/12/22 04:42:09;;;;;;;32.83;19.77;;;-4.00;99.90;;;;;;4945686;29;20047;-48
2021/12/22 04:44:34;;;;;;;29.30;18.85;;;-4.00;99.90;;;;;;4920502;29;20062;-47
2021/12/22 04:47:12;;;;;;;30.25;19.08;;;-4.00;99.90;;;;;;4946663;28;20059;-48
2021/12/22 04:49:40;;;;;;;25.23;17.67;;;-4.00;99.90;;;;;;4944780;28;20983;-47
2021/12/22 04:52:08;;;;;;;31.27;18.77;;;-4.00;99.90;;;;;;4924475;29;20114;-50
2021/12/22 04:54:45;;;;;;;29.77;18.88;;;-4.00;99.90;;;;;;4947005;28;20742;-51
2021/12/22 04:57:11;;;;;;;27.10;18.15;;;-4.10;99.90;;;;;;4942291;28;20510;-48
2021/12/22 04:59:37;;;;;;;32.63;20.13;;;-4.10;99.90;;;;;;4936650;28;20082;-48
2021/12/22 05:02:03;;;;;;;31.98;20.48;;;-4.10;99.90;;;;;;4944242;28;20391;-47
2021/12/22 05:04:28;;;;;;;33.42;20.70;;;-4.10;99.90;;;;;;4937518;28;20047;-47
2021/12/22 05:06:54;;;;;;;31.73;19.60;;;-4.10;99.90;;;;;;4945979;28;20130;-47
2021/12/22 05:09:20;;;;;;;28.35;19.33;;;-4.10;99.90;;;;;;4935591;28;20470;-51
2021/12/22 05:11:45;;;;;;;33.65;20.35;;;-4.10;99.90;;;;;;4944914;28;20139;-48
2021/12/22 05:14:11;;;;;;;32.92;18.92;;;-4.10;99.90;;;;;;4929385;28;20122;-48
2021/12/22 05:16:45;;;;;;;32.35;18.27;;;-4.10;99.90;;;;;;4945803;28;20130;-49
2021/12/22 05:19:16;;;;;;;33.78;21.15;;;-4.10;99.90;;;;;;4925718;29;20385;-48
2021/12/22 05:21:44;;;;;;;31.70;19.48;;;-4.10;99.90;;;;;;4944360;28;20043;-49
2021/12/22 05:24:10;;;;;;;33.42;19.33;;;-4.10;99.90;;;;;;4926658;29;20517;-49
2021/12/22 05:26:37;;;;;;;31.02;19.48;;;-4.10;99.90;;;;;;4945009;28;20126;-47
2021/12/22 05:29:03;;;;;;;28.45;19.55;;;-4.10;99.90;;;;;;4935030;28;20453;-47
2021/12/22 05:31:29;;;;;;;28.05;18.58;;;-4.00;99.90;;;;;;4944439;28;20039;-48
2021/12/22 05:33:56;;;;;;;33.17;19.85;;;-4.00;99.90;;;;;;4945629;28;20051;-47
2021/12/22 05:36:22;;;;;;;28.83;18.70;;;-4.10;99.90;;;;;;4945029;28;20509;-47
2021/12/22 05:38:48;;;;;;;32.47;19.95;;;-4.10;99.90;;;;;;4944429;28;20051;-47
2021/12/22 05:41:14;;;;;;;29.35;18.38;;;-4.10;99.90;;;;;;4926824;28;20516;-48
2021/12/22 05:43:40;;;;;;;31.50;18.30;;;-4.10;99.90;;;;;;4945909;28;20103;-47
2021/12/22 05:46:06;;;;;;;29.83;19.63;;;-4.10;99.90;;;;;;4945006;28;20098;-47
2021/12/22 05:48:31;;;;;;;30.55;19.20;;;-4.10;99.90;;;;;;4944743;28;20051;-48
2021/12/22 05:50:58;;;;;;;34.72;20.42;;;-4.20;99.90;;;;;;4945770;29;20117;-51
2021/12/22 05:53:28;;;;;;;30.20;19.58;;;-4.20;99.90;;;;;;4945074;29;20069;-50
2021/12/22 05:55:55;;;;;;;36.60;21.98;;;-4.20;99.90;;;;;;4946751;29;20426;-48
2021/12/22 05:58:22;;;;;;;38.78;20.85;;;-4.20;99.90;;;;;;4946807;29;20133;-51
2021/12/22 06:00:48;;;;;;;37.17;21.02;;;-4.20;99.90;;;;;;4927518;29;20051;-50
2021/12/22 06:03:14;;;;;;;35.35;21.13;;;-4.20;99.90;;;;;;4926169;29;20514;-48
2021/12/22 06:05:41;;;;;;;29.95;20.35;;;-4.30;99.90;;;;;;4923375;29;20059;-47
2021/12/22 06:08:07;;;;;;;34.60;21.02;;;-4.30;99.90;;;;;;4942689;28;20391;-47
2021/12/22 06:10:34;;;;;;;33.20;19.15;;;-4.30;99.90;;;;;;4944136;29;20102;-48
2021/12/22 06:13:04;;;;;;;28.42;18.88;;;-4.30;99.90;;;;;;4956428;28;20482;-49
2021/12/22 06:15:31;;;;;;;30.20;18.80;;;-4.30;99.90;;;;;;4943217;29;20082;-48
2021/12/22 06:17:58;;;;;;;30.17;18.20;;;-4.30;99.90;;;;;;4926609;29;20075;-48
2021/12/22 06:20:25;;;;;;;30.95;19.55;;;-4.30;99.90;;;;;;4944551;29;20461;-48
2021/12/22 06:22:51;;;;;;;28.20;19.90;;;-4.30;99.90;;;;;;4931601;29;20050;-48
2021/12/22 06:25:17;;;;;;;33.10;18.33;;;-4.30;99.90;;;;;;4941782;29;20183;-48
2021/12/22 06:27:43;;;;;;;30.63;19.75;;;-4.30;99.90;;;;;;4942989;29;20103;-47
2021/12/22 06:30:09;;;;;;;31.27;19.95;;;-4.40;99.90;;;;;;4943782;29;20317;-48
2021/12/22 06:32:36;;;;;;;31.15;18.27;;;-4.30;99.90;;;;;;4943603;29;20043;-48
2021/12/22 06:35:02;;;;;;;30.63;20.40;;;-4.30;99.90;;;;;;4936988;28;20136;-49
2021/12/22 06:37:28;;;;;;;31.88;20.20;;;-4.40;99.90;;;;;;4944287;29;20059;-47
2021/12/22 06:39:57;;;;;;;30.90;18.15;;;-4.40;99.90;;;;;;4944045;29;20043;-47
2021/12/22 06:42:23;;;;;;;35.28;19.75;;;-4.40;99.90;;;;;;4943573;29;20079;-47
2021/12/22 06:44:50;;;;;;;27.88;18.33;;;-4.40;99.90;;;;;;4943919;29;20059;-48
2021/12/22 06:47:16;;;;;;;34.97;20.83;;;-4.40;99.90;;;;;;4942865;28;20135;-48
2021/12/22 06:49:47;;;;;;;35.80;20.23;;;-4.40;99.90;;;;;;4944812;29;20102;-48
2021/12/22 06:52:13;;;;;;;37.65;21.00;;;-4.40;99.90;;;;;;4945294;28;20058;-50
2021/12/22 06:54:39;;;;;;;34.38;21.70;;;-4.40;99.90;;;;;;4948525;29;20050;-50
2021/12/22 06:57:05;;;;;;;33.47;19.65;;;-4.40;99.90;;;;;;4948669;29;20406;-47
2021/12/22 06:59:32;;;;;;;31.95;20.27;;;-4.40;99.90;;;;;;4947564;29;20185;-47
2021/12/22 07:01:58;;;;;;;30.58;19.10;;;-4.40;99.90;;;;;;4947326;29;20055;-48
2021/12/22 07:04:29;;;;;;;35.70;19.58;;;-4.50;99.90;;;;;;4947069;28;20078;-47
2021/12/22 07:06:55;;;;;;;35.75;21.42;;;-4.40;99.90;;;;;;4947737;29;20050;-48
2021/12/22 07:09:26;;;;;;;40.42;20.58;;;-4.50;99.90;;;;;;4948802;28;20054;-50
2021/12/22 07:11:52;;;;;;;32.53;20.48;;;-4.50;99.90;;;;;;4958287;28;20498;-48
2021/12/22 07:14:18;;;;;;;38.00;19.23;;;-4.40;99.90;;;;;;4948892;29;20066;-49
2021/12/22 07:16:45;;;;;;;35.00;20.38;;;-4.50;99.90;;;;;;4950319;29;20089;-50
2021/12/22 07:19:12;;;;;;;32.80;19.10;;;-4.50;99.90;;;;;;4929565;29;20055;-51
2021/12/22 07:21:38;;;;;;;35.20;19.75;;;-4.40;99.90;;;;;;4946695;29;20549;-49
2021/12/22 07:24:04;;;;;;;35.22;21.23;;;-4.50;99.90;;;;;;4946706;28;20061;-48
2021/12/22 07:26:30;;;;;;;34.63;20.27;;;-4.40;99.90;;;;;;4929934;29;20051;-49
2021/12/22 07:28:56;;;;;;;32.78;19.52;;;-4.40;99.90;;;;;;4945670;29;20093;-48
2021/12/22 07:31:26;;;;;;;34.65;19.30;;;-4.40;99.90;;;;;;4925561;29;20075;-47
2021/12/22 07:34:14;;;;;;;35.72;20.55;;;-4.40;99.90;;;;;;4944525;28;20090;-47
2021/12/22 07:36:54;;;;;;;30.02;18.63;;;-4.30;99.90;;;;;;4946242;28;20051;-47
2021/12/22 07:39:20;;;;;;;32.30;19.20;;;-4.30;99.90;;;;;;4935990;29;20051;-48
2021/12/22 07:41:45;;;;;;;34.45;18.63;;;-4.30;99.90;;;;;;4943878;28;20442;-49
2021/12/22 07:44:11;;;;;;;33.83;20.35;;;-4.30;99.90;;;;;;4946968;29;20055;-47
2021/12/22 07:46:37;;;;;;;30.58;19.60;;;-4.30;99.90;;;;;;4926532;29;20098;-48
2021/12/22 07:49:02;;;;;;;34.25;19.20;;;-4.30;99.90;;;;;;4946181;29;20047;-47
2021/12/22 07:51:28;;;;;;;34.03;19.70;;;-4.30;99.90;;;;;;4945985;29;20712;-50
2021/12/22 07:53:54;;;;;;;32.50;19.38;;;-4.20;99.90;;;;;;4946672;29;20051;-47
2021/12/22 07:56:20;;;;;;;33.50;20.73;;;-4.20;99.90;;;;;;4947971;29;20051;-48
2021/12/22 07:58:46;;;;;;;34.08;18.95;;;-4.20;99.90;;;;;;4943101;28;20078;-47
2021/12/22 08:01:11;;;;;;;35.92;20.58;;;-4.20;99.90;;;;;;4942862;28;20449;-47
2021/12/22 08:03:37;;;;;;;32.15;18.48;;;-4.20;99.90;;;;;;4945555;28;20553;-47
2021/12/22 08:06:03;;;;;;;36.58;19.67;;;-4.20;99.90;;;;;;4934452;28;20051;-48
2021/12/22 08:08:29;;;;;;;32.40;19.95;;;-4.10;99.90;;;;;;4928944;29;20058;-50
2021/12/22 08:10:54;;;;;;;31.60;19.00;;;-4.10;99.90;;;;;;4944996;29;20051;-49
2021/12/22 08:13:20;;;;;;;35.05;21.27;;;-4.10;99.90;;;;;;4928627;29;20059;-50
2021/12/22 08:15:46;;;;;;;37.40;20.90;;;-4.00;99.90;;;;;;4936375;28;20051;-48
2021/12/22 08:18:12;;;;;;;31.42;20.05;;;-4.00;99.90;;;;;;4947445;29;20387;-50
2021/12/22 08:20:38;;;;;;;34.85;20.30;;;-3.90;99.90;;;;;;4934608;29;20044;-50
2021/12/22 08:23:04;;;;;;;32.60;19.85;;;-3.80;99.90;;;;;;4945262;29;20039;-51
2021/12/22 08:25:30;;;;;;;36.10;19.98;;;-3.80;99.90;;;;;;4946165;29;20055;-47
2021/12/22 08:27:56;;;;;;;31.35;20.38;;;-3.70;99.90;;;;;;4926689;29;20129;-47
2021/12/22 08:30:22;;;;;;;35.63;20.50;;;-3.70;99.90;;;;;;4945024;29;20059;-48
2021/12/22 08:32:47;;;;;;;39.72;22.08;;;-3.60;99.90;;;;;;4928234;29;20039;-49
2021/12/22 08:35:16;;;;;;;33.53;20.52;;;-3.60;99.90;;;;;;4928087;29;20165;-48
2021/12/22 08:40:26;;;;;;;36.40;21.30;;;-3.50;99.90;;;;;;4932153;29;20059;-49
2021/12/22 08:42:52;;;;;;;33.22;19.40;;;-3.50;99.90;;;;;;4928652;29;20057;-47
2021/12/22 08:45:19;;;;;;;33.88;19.90;;;-3.50;99.90;;;;;;4945690;28;20408;-48
2021/12/22 08:47:46;;;;;;;35.35;19.90;;;-3.50;99.90;;;;;;4938055;28;20075;-48
2021/12/22 08:50:13;;;;;;;33.30;20.00;;;-3.50;99.90;;;;;;4937573;28;20053;-48
2021/12/22 08:52:39;;;;;;;32.83;20.55;;;-3.40;99.90;;;;;;4921595;29;20087;-48
2021/12/22 08:55:06;;;;;;;33.53;19.67;;;-3.40;99.90;;;;;;4919751;29;20051;-48
2021/12/22 08:57:34;;;;;;;34.38;20.10;;;-3.40;99.90;;;;;;4943937;28;20391;-47
2021/12/22 09:00:00;;;;;;;37.40;20.27;;;-3.30;99.90;;;;;;4927223;29;20059;-50
2021/12/22 09:02:26;;;;;;;36.42;21.10;;;-3.30;99.90;;;;;;4945032;28;20051;-47
2021/12/22 09:04:52;;;;;;;34.15;21.67;;;-3.30;99.90;;;;;;4944732;28;20047;-50
2021/12/22 09:07:17;;;;;;;35.63;21.63;;;-3.30;99.90;;;;;;4942534;28;20070;-48
2021/12/22 09:09:44;;;;;;;31.40;18.70;;;-3.30;99.90;;;;;;4944817;29;20055;-48
2021/12/22 09:12:10;;;;;;;36.50;22.08;;;-3.30;99.90;;;;;;4945000;29;20050;-48
2021/12/22 09:14:36;;;;;;;38.42;20.25;;;-3.20;99.90;;;;;;4925723;28;20117;-48
2021/12/22 09:17:01;;;;;;;34.33;21.02;;;-3.20;99.90;;;;;;4944394;28;20678;-48
2021/12/22 09:19:27;;;;;;;39.47;21.25;;;-3.10;99.90;;;;;;4945923;29;20043;-50
2021/12/22 09:21:53;;;;;;;35.08;20.90;;;-3.00;99.90;;;;;;4930526;29;20081;-50
2021/12/22 09:24:20;;;;;;;37.70;21.27;;;-3.00;99.90;;;;;;4912542;29;20087;-51
2021/12/22 09:26:46;;;;;;;32.22;20.25;;;-2.90;99.90;;;;;;4944501;28;20494;-49
2021/12/22 09:29:12;;;;;;;34.13;20.65;;;-2.90;99.90;;;;;;4944378;28;20046;-47
2021/12/22 09:31:39;;;;;;;36.42;20.30;;;-2.80;99.90;;;;;;4944288;28;20059;-48
2021/12/22 09:34:05;;;;;;;34.35;20.42;;;-2.80;99.90;;;;;;4948823;28;20051;-48
2021/12/22 09:36:31;;;;;;;34.97;21.15;;;-2.80;99.90;;;;;;4917835;29;20070;-48
2021/12/22 09:38:56;;;;;;;33.65;20.92;;;-2.70;99.90;;;;;;4937197;28;20586;-48
2021/12/22 09:41:22;;;;;;;34.42;19.85;;;-2.60;99.90;;;;;;4940187;28;20059;-48
2021/12/22 09:43:50;;;;;;;33.97;20.00;;;-2.60;99.90;;;;;;4943746;28;20043;-51
2021/12/22 09:46:20;;;;;;;35.55;20.90;;;-2.60;99.90;;;;;;4943537;28;20063;-50
2021/12/22 09:48:50;;;;;;;34.17;20.05;;;-2.50;99.90;;;;;;4943196;29;20070;-51
2021/12/22 09:53:50;;;;;;;36.85;19.92;;;-2.50;99.90;;;;;;4937207;29;20051;-47
2021/12/22 09:56:22;;;;;;;39.58;21.02;;;-2.40;99.90;;;;;;4912634;28;20582;-48
2021/12/22 09:58:49;;;;;;;38.67;20.95;;;-2.30;99.90;;;;;;4944406;29;20055;-47
2021/12/22 10:01:20;;;;;;;33.85;20.40;;;-2.30;99.90;;;;;;4931421;28;20054;-48
2021/12/22 10:03:46;;;;;;;36.38;21.80;;;-2.20;99.90;;;;;;4934886;28;20051;-48
2021/12/22 10:06:13;;;;;;;35.55;21.67;;;-2.20;99.90;;;;;;4935514;28;20109;-47
2021/12/22 10:08:50;;;;;;;30.40;18.65;;;-2.10;99.90;;;;;;4917820;29;20404;-51
2021/12/22 10:11:16;;;;;;;36.90;21.63;;;-2.10;99.90;;;;;;4917587;29;20106;-48
2021/12/22 10:13:44;;;;;;;33.83;20.25;;;-2.10;99.90;;;;;;4915497;29;20053;-48
2021/12/22 10:16:15;;;;;;;34.47;20.52;;;-2.10;99.90;;;;;;4917845;29;20043;-49
2021/12/22 10:18:41;;;;;;;37.00;21.15;;;-2.00;99.90;;;;;;4911821;29;20059;-48
2021/12/22 10:21:21;;;;;;;36.50;20.45;;;-2.00;99.90;;;;;;4911251;29;20052;-48
2021/12/22 10:23:52;;;;;;;36.60;21.40;;;-2.00;99.90;;;;;;4920796;29;20055;-51
2021/12/22 10:26:23;;;;;;;33.05;19.77;;;-2.00;99.90;;;;;;4924209;29;20534;-51
2021/12/22 10:28:51;;;;;;;30.83;19.83;;;-2.00;99.90;;;;;;4924577;29;20051;-48
2021/12/22 10:31:19;;;;;;;38.88;20.40;;;-1.90;99.90;;;;;;4923244;29;20052;-48
2021/12/22 10:33:45;;;;;;;32.03;21.10;;;-1.90;99.90;;;;;;4926635;29;20055;-47
2021/12/22 10:36:17;;;;;;;31.25;20.25;;;-1.90;99.90;;;;;;4931149;29;20135;-49
2021/12/22 10:38:54;;;;;;;42.17;21.60;;;-1.80;99.90;;;;;;4924661;29;20058;-48
2021/12/22 10:41:21;;;;;;;38.78;20.83;;;-1.80;99.90;;;;;;4918133;29;20517;-48
2021/12/22 10:43:50;;;;;;;33.70;19.65;;;-1.70;99.90;;;;;;4924069;29;20065;-48
2021/12/22 10:46:28;;;;;;;38.72;21.35;;;-1.70;99.90;;;;;;4914798;29;20123;-49
2021/12/22 10:49:43;;;;;;;36.22;21.50;;;-1.70;99.90;;;;;;4918777;29;20498;-48
2021/12/22 10:52:03;;;;;;;35.20;21.20;;;-1.60;99.90;;;;;;4911101;29;20055;-48
2021/12/22 10:54:38;;;;;;;34.92;21.05;;;-1.60;99.90;;;;;;4922878;29;20130;-47
2021/12/22 10:57:11;;;;;;;38.60;21.60;;;-1.60;99.90;;;;;;4924891;29;20459;-49
2021/12/22 10:59:49;;;;;;;39.58;21.42;;;-1.50;99.90;;;;;;4915943;29;20514;-49
2021/12/22 11:02:25;;;;;;;32.53;20.15;;;-1.50;99.90;;;;;;4925295;29;20067;-48
2021/12/22 11:04:51;;;;;;;37.42;21.90;;;-1.50;99.90;;;;;;4923902;29;20430;-48
2021/12/22 11:07:26;;;;;;;30.98;20.52;;;-1.50;99.90;;;;;;4923557;29;20139;-48
2021/12/22 11:09:59;;;;;;;34.78;20.85;;;-1.50;99.90;;;;;;4928464;28;20055;-48
2021/12/22 11:12:36;;;;;;;36.60;20.15;;;-1.40;99.90;;;;;;4922041;29;20566;-49
2021/12/22 11:15:22;;;;;;;31.88;19.15;;;-1.40;99.90;;;;;;4924479;29;20044;-48
2021/12/22 11:17:48;;;;;;;39.40;19.98;;;-1.40;99.90;;;;;;4921322;29;20051;-50
2021/12/22 11:20:14;;;;;;;39.50;21.95;;;-1.40;99.90;;;;;;4922954;29;20055;-48
2021/12/22 11:23:04;;;;;;;33.72;19.38;;;-1.30;99.90;;;;;;4922796;29;20051;-49
2021/12/22 11:25:30;;;;;;;32.00;19.65;;;-1.30;99.90;;;;;;4903565;29;20065;-52
2021/12/22 11:27:58;;;;;;;35.90;20.30;;;-1.30;99.90;;;;;;4928068;28;20086;-48
2021/12/22 11:30:26;;;;;;;31.25;19.35;;;-1.30;99.90;;;;;;4916660;29;20066;-52
2021/12/22 11:32:56;;;;;;;36.58;20.70;;;-1.30;99.90;;;;;;4922905;29;20059;-50
2021/12/22 11:35:23;;;;;;;36.58;20.83;;;-1.30;99.90;;;;;;4922576;29;20134;-49
2021/12/22 11:37:49;;;;;;;34.38;20.40;;;-1.30;99.90;;;;;;4922228;29;20051;-48
2021/12/22 11:40:21;;;;;;;33.03;20.17;;;-1.20;99.90;;;;;;4925005;29;20531;-48
2021/12/22 11:42:48;;;;;;;31.45;20.40;;;-1.20;99.90;;;;;;4927384;29;20043;-48
2021/12/22 11:45:18;;;;;;;31.00;20.20;;;-1.20;99.90;;;;;;4925328;29;20051;-48
2021/12/22 11:47:47;;;;;;;35.50;20.65;;;-1.10;99.90;;;;;;4917880;29;20052;-48
2021/12/22 11:50:21;;;;;;;38.10;22.45;;;-1.10;99.90;;;;;;4927771;29;20181;-47
2021/12/22 11:52:59;;;;;;;32.45;20.52;;;-1.00;99.90;;;;;;4925780;29;20103;-48
2021/12/22 11:55:28;;;;;;;32.08;19.52;;;-1.00;99.90;;;;;;4927102;29;20388;-48
2021/12/22 11:58:11;;;;;;;31.70;20.13;;;-0.90;99.90;;;;;;4927741;29;20063;-49
2021/12/22 12:00:38;;;;;;;31.23;20.20;;;-0.90;99.90;;;;;;4928172;29;20051;-51
2021/12/22 12:03:36;;;;;;;29.33;19.10;;;-0.80;99.90;;;;;;4927077;29;20378;-48
2021/12/22 12:06:14;;;;;;;30.77;19.77;;;-0.80;99.90;;;;;;4907221;29;20127;-47
2021/12/22 12:08:51;;;;;;;29.73;19.13;;;-0.80;99.90;;;;;;4924776;29;20107;-48
2021/12/22 12:11:36;;;;;;;29.65;19.00;;;-0.70;99.90;;;;;;4925222;29;20051;-49
2021/12/22 12:14:09;;;;;;;30.15;19.20;;;-0.70;99.90;;;;;;4924830;29;20059;-47
2021/12/22 12:22:25;;;;;;;33.97;20.50;;;-0.70;99.90;;;;;;4922869;29;20155;-50
2021/12/22 12:24:57;;;;;;;34.00;18.35;;;-0.70;99.90;;;;;;4920190;29;20430;-47
2021/12/22 12:27:43;;;;;;;30.00;18.65;;;-0.70;99.90;;;;;;4918885;29;20066;-48
2021/12/22 12:30:10;;;;;;;31.50;19.20;;;-0.70;99.90;;;;;;4919718;29;20154;-49
2021/12/22 12:32:39;;;;;;;27.20;18.17;;;-0.80;99.90;;;;;;4921132;29;20055;-48
2021/12/22 12:35:23;;;;;;;33.25;19.55;;;-0.80;99.90;;;;;;4922729;29;20615;-48
2021/12/22 12:38:17;;;;;;;30.25;19.15;;;-0.80;99.90;;;;;;4939447;28;20110;-48
2021/12/22 12:41:00;;;;;;;29.75;19.05;;;-0.80;99.90;;;;;;4924090;29;20617;-49
2021/12/22 12:46:35;;;;;;;32.42;19.17;;;-0.90;99.90;;;;;;4920560;29;20758;-50
2021/12/22 12:49:03;;;;;;;;;;;-0.90;99.90;;;;;;4913481;29;20578;-48
2021/12/22 12:51:31;;;;;;;29.55;18.92;;;-0.80;99.90;;;;;;4907907;29;19927;-49
2021/12/22 12:54:27;;;;;;;31.33;18.90;;;-0.80;99.90;;;;;;4909497;29;20618;-48
2021/12/22 12:56:59;;;;;;;31.10;18.70;;;-0.90;99.90;;;;;;4915736;29;20056;-47
2021/12/22 12:59:37;;;;;;;32.03;18.70;;;-0.90;99.90;;;;;;4913189;29;20083;-50
2021/12/22 13:02:04;;;;;;;27.83;19.17;;;-0.90;99.90;;;;;;4919561;29;20048;-49